sensor_id;sensor_type;location;lat;lon;timestamp;P1;durP1;ratioP1;P2;durP2;ratioP2
70850;SDS011;58475;49.662;9.636;2023-02-07T00:00:47;20.45;;;11.05;;
70850;SDS011;58475;49.662;9.636;2023-02-07T00:03:13;18.33;;;10.75;;
70850;SDS011;58475;49.662;9.636;2023-02-07T00:05:38;18.08;;;10.90;;
70850;SDS011;58475;49.662;9.636;2023-02-07T00:08:04;19.58;;;9.70;;
70850;SDS011;58475;49.662;9.636;2023-02-07T00:10:30;19.38;;;11.10;;
70850;SDS011;58475;49.662;9.636;2023-02-07T00:12:56;16.75;;;10.02;;
70850;SDS011;58475;49.662;9.636;2023-02-07T00:15:22;16.65;;;9.95;;
70850;SDS011;58475;49.662;9.636;2023-02-07T00:17:47;18.70;;;10.77;;
70850;SDS011;58475;49.662;9.636;2023-02-07T00:20:12;19.67;;;11.23;;
70850;SDS011;58475;49.662;9.636;2023-02-07T00:22:38;17.75;;;10.25;;
70850;SDS011;58475;49.662;9.636;2023-02-07T00:25:03;18.08;;;10.50;;
70850;SDS011;58475;49.662;9.636;2023-02-07T00:27:29;19.38;;;9.75;;
70850;SDS011;58475;49.662;9.636;2023-02-07T00:29:55;21.15;;;11.35;;
70850;SDS011;58475;49.662;9.636;2023-02-07T00:32:20;21.13;;;10.95;;
70850;SDS011;58475;49.662;9.636;2023-02-07T00:34:46;17.25;;;10.40;;
70850;SDS011;58475;49.662;9.636;2023-02-07T00:37:12;18.50;;;10.70;;
70850;SDS011;58475;49.662;9.636;2023-02-07T00:39:38;19.38;;;10.52;;
70850;SDS011;58475;49.662;9.636;2023-02-07T00:42:03;17.20;;;10.40;;
70850;SDS011;58475;49.662;9.636;2023-02-07T00:44:29;20.23;;;9.68;;
70850;SDS011;58475;49.662;9.636;2023-02-07T00:46:56;17.58;;;9.98;;
70850;SDS011;58475;49.662;9.636;2023-02-07T00:49:22;16.95;;;9.25;;
70850;SDS011;58475;49.662;9.636;2023-02-07T00:51:48;15.85;;;9.90;;
70850;SDS011;58475;49.662;9.636;2023-02-07T00:54:13;16.90;;;9.52;;
70850;SDS011;58475;49.662;9.636;2023-02-07T00:56:39;18.58;;;10.00;;
70850;SDS011;58475;49.662;9.636;2023-02-07T00:59:04;18.95;;;10.43;;
70850;SDS011;58475;49.662;9.636;2023-02-07T01:01:30;15.88;;;9.20;;
70850;SDS011;58475;49.662;9.636;2023-02-07T01:03:56;16.15;;;9.55;;
70850;SDS011;58475;49.662;9.636;2023-02-07T01:06:21;16.67;;;10.07;;
70850;SDS011;58475;49.662;9.636;2023-02-07T01:08:46;17.05;;;9.38;;
70850;SDS011;58475;49.662;9.636;2023-02-07T01:11:13;18.45;;;9.65;;
70850;SDS011;58475;49.662;9.636;2023-02-07T01:13:41;17.10;;;9.43;;
70850;SDS011;58475;49.662;9.636;2023-02-07T01:16:28;15.75;;;10.02;;
70850;SDS011;58475;49.662;9.636;2023-02-07T01:18:55;16.58;;;9.38;;
70850;SDS011;58475;49.662;9.636;2023-02-07T01:21:23;16.73;;;9.95;;
70850;SDS011;58475;49.662;9.636;2023-02-07T01:23:49;16.70;;;9.67;;
70850;SDS011;58475;49.662;9.636;2023-02-07T01:26:15;23.65;;;10.18;;
70850;SDS011;58475;49.662;9.636;2023-02-07T01:28:41;16.60;;;9.00;;
70850;SDS011;58475;49.662;9.636;2023-02-07T01:31:07;18.80;;;9.65;;
70850;SDS011;58475;49.662;9.636;2023-02-07T01:33:34;17.52;;;9.90;;
70850;SDS011;58475;49.662;9.636;2023-02-07T01:36:04;17.33;;;9.98;;
70850;SDS011;58475;49.662;9.636;2023-02-07T01:38:33;15.27;;;9.75;;
70850;SDS011;58475;49.662;9.636;2023-02-07T01:40:58;14.80;;;9.43;;
70850;SDS011;58475;49.662;9.636;2023-02-07T01:43:24;17.87;;;9.80;;
70850;SDS011;58475;49.662;9.636;2023-02-07T01:45:50;18.27;;;9.52;;
70850;SDS011;58475;49.662;9.636;2023-02-07T01:48:21;16.53;;;9.47;;
70850;SDS011;58475;49.662;9.636;2023-02-07T01:50:50;16.17;;;9.75;;
70850;SDS011;58475;49.662;9.636;2023-02-07T01:53:18;18.38;;;10.20;;
70850;SDS011;58475;49.662;9.636;2023-02-07T01:55:46;17.67;;;9.20;;
70850;SDS011;58475;49.662;9.636;2023-02-07T01:58:15;15.68;;;9.60;;
70850;SDS011;58475;49.662;9.636;2023-02-07T02:00:41;17.13;;;9.05;;
70850;SDS011;58475;49.662;9.636;2023-02-07T02:03:07;16.52;;;9.70;;
70850;SDS011;58475;49.662;9.636;2023-02-07T02:05:34;16.15;;;9.30;;
70850;SDS011;58475;49.662;9.636;2023-02-07T02:08:01;14.75;;;9.35;;
70850;SDS011;58475;49.662;9.636;2023-02-07T02:10:43;15.53;;;9.00;;
70850;SDS011;58475;49.662;9.636;2023-02-07T02:13:23;16.60;;;9.63;;
70850;SDS011;58475;49.662;9.636;2023-02-07T02:16:19;17.83;;;9.68;;
70850;SDS011;58475;49.662;9.636;2023-02-07T02:21:54;19.88;;;9.70;;
70850;SDS011;58475;49.662;9.636;2023-02-07T02:35:31;16.80;;;9.70;;
70850;SDS011;58475;49.662;9.636;2023-02-07T02:38:10;21.10;;;10.10;;
70850;SDS011;58475;49.662;9.636;2023-02-07T02:40:39;16.30;;;8.73;;
70850;SDS011;58475;49.662;9.636;2023-02-07T02:45:45;17.50;;;9.03;;
70850;SDS011;58475;49.662;9.636;2023-02-07T02:48:17;17.90;;;9.67;;
70850;SDS011;58475;49.662;9.636;2023-02-07T02:50:44;14.38;;;9.02;;
70850;SDS011;58475;49.662;9.636;2023-02-07T02:53:12;16.88;;;9.50;;
70850;SDS011;58475;49.662;9.636;2023-02-07T02:55:46;16.38;;;9.18;;
70850;SDS011;58475;49.662;9.636;2023-02-07T02:58:41;16.45;;;9.52;;
70850;SDS011;58475;49.662;9.636;2023-02-07T03:01:18;18.50;;;10.07;;
70850;SDS011;58475;49.662;9.636;2023-02-07T03:03:52;17.13;;;9.73;;
70850;SDS011;58475;49.662;9.636;2023-02-07T03:11:59;21.07;;;9.93;;
70850;SDS011;58475;49.662;9.636;2023-02-07T03:17:13;16.37;;;8.83;;
70850;SDS011;58475;49.662;9.636;2023-02-07T03:19:47;19.02;;;9.57;;
70850;SDS011;58475;49.662;9.636;2023-02-07T03:22:19;19.03;;;9.70;;
70850;SDS011;58475;49.662;9.636;2023-02-07T03:24:50;15.33;;;9.07;;
70850;SDS011;58475;49.662;9.636;2023-02-07T03:27:18;16.00;;;9.07;;
70850;SDS011;58475;49.662;9.636;2023-02-07T03:29:47;21.15;;;10.02;;
70850;SDS011;58475;49.662;9.636;2023-02-07T03:32:16;13.83;;;8.80;;
70850;SDS011;58475;49.662;9.636;2023-02-07T03:34:57;17.63;;;9.47;;
70850;SDS011;58475;49.662;9.636;2023-02-07T03:40:03;16.87;;;9.60;;
70850;SDS011;58475;49.662;9.636;2023-02-07T03:42:34;16.60;;;10.15;;
70850;SDS011;58475;49.662;9.636;2023-02-07T03:45:02;17.67;;;9.90;;
70850;SDS011;58475;49.662;9.636;2023-02-07T03:47:32;17.93;;;9.93;;
70850;SDS011;58475;49.662;9.636;2023-02-07T03:49:58;18.13;;;9.63;;
70850;SDS011;58475;49.662;9.636;2023-02-07T03:52:23;17.93;;;9.47;;
70850;SDS011;58475;49.662;9.636;2023-02-07T03:54:48;16.13;;;9.13;;
70850;SDS011;58475;49.662;9.636;2023-02-07T03:57:14;17.25;;;9.65;;
70850;SDS011;58475;49.662;9.636;2023-02-07T03:59:39;15.07;;;9.50;;
70850;SDS011;58475;49.662;9.636;2023-02-07T04:02:05;14.90;;;9.77;;
70850;SDS011;58475;49.662;9.636;2023-02-07T04:04:30;18.50;;;9.80;;
70850;SDS011;58475;49.662;9.636;2023-02-07T04:06:56;19.00;;;10.82;;
70850;SDS011;58475;49.662;9.636;2023-02-07T04:09:22;19.43;;;9.23;;
70850;SDS011;58475;49.662;9.636;2023-02-07T04:11:48;18.07;;;9.37;;
70850;SDS011;58475;49.662;9.636;2023-02-07T04:14:14;14.90;;;8.87;;
70850;SDS011;58475;49.662;9.636;2023-02-07T04:16:39;16.20;;;10.00;;
70850;SDS011;58475;49.662;9.636;2023-02-07T04:19:05;17.80;;;9.67;;
70850;SDS011;58475;49.662;9.636;2023-02-07T04:21:30;18.57;;;9.67;;
70850;SDS011;58475;49.662;9.636;2023-02-07T04:23:56;16.00;;;9.30;;
70850;SDS011;58475;49.662;9.636;2023-02-07T04:26:21;19.75;;;9.38;;
70850;SDS011;58475;49.662;9.636;2023-02-07T04:28:46;18.43;;;10.73;;
70850;SDS011;58475;49.662;9.636;2023-02-07T04:31:12;18.33;;;10.05;;
70850;SDS011;58475;49.662;9.636;2023-02-07T04:33:37;17.93;;;9.67;;
70850;SDS011;58475;49.662;9.636;2023-02-07T04:36:03;18.60;;;10.40;;
70850;SDS011;58475;49.662;9.636;2023-02-07T04:38:29;18.27;;;9.37;;
70850;SDS011;58475;49.662;9.636;2023-02-07T04:40:58;18.50;;;10.10;;
70850;SDS011;58475;49.662;9.636;2023-02-07T04:43:27;15.13;;;9.27;;
70850;SDS011;58475;49.662;9.636;2023-02-07T04:45:52;16.40;;;10.10;;
70850;SDS011;58475;49.662;9.636;2023-02-07T04:48:18;14.93;;;9.77;;
70850;SDS011;58475;49.662;9.636;2023-02-07T04:50:43;14.63;;;9.33;;
70850;SDS011;58475;49.662;9.636;2023-02-07T04:53:09;16.33;;;9.27;;
70850;SDS011;58475;49.662;9.636;2023-02-07T04:55:34;16.85;;;9.40;;
70850;SDS011;58475;49.662;9.636;2023-02-07T04:58:01;18.13;;;9.32;;
70850;SDS011;58475;49.662;9.636;2023-02-07T05:00:28;15.23;;;9.13;;
70850;SDS011;58475;49.662;9.636;2023-02-07T05:02:53;16.90;;;10.43;;
70850;SDS011;58475;49.662;9.636;2023-02-07T05:05:19;13.57;;;8.97;;
70850;SDS011;58475;49.662;9.636;2023-02-07T05:07:44;14.23;;;8.57;;
70850;SDS011;58475;49.662;9.636;2023-02-07T05:10:09;17.00;;;9.73;;
70850;SDS011;58475;49.662;9.636;2023-02-07T05:12:35;15.37;;;9.00;;
70850;SDS011;58475;49.662;9.636;2023-02-07T05:15:01;17.73;;;9.57;;
70850;SDS011;58475;49.662;9.636;2023-02-07T05:17:26;15.20;;;9.20;;
70850;SDS011;58475;49.662;9.636;2023-02-07T05:19:51;15.20;;;9.33;;
70850;SDS011;58475;49.662;9.636;2023-02-07T05:22:17;15.17;;;9.47;;
70850;SDS011;58475;49.662;9.636;2023-02-07T05:24:42;16.63;;;8.70;;
70850;SDS011;58475;49.662;9.636;2023-02-07T05:27:08;17.20;;;9.47;;
70850;SDS011;58475;49.662;9.636;2023-02-07T05:29:33;16.73;;;9.17;;
70850;SDS011;58475;49.662;9.636;2023-02-07T05:31:59;16.10;;;9.40;;
70850;SDS011;58475;49.662;9.636;2023-02-07T05:34:43;16.47;;;8.33;;
70850;SDS011;58475;49.662;9.636;2023-02-07T05:37:08;16.33;;;8.80;;
70850;SDS011;58475;49.662;9.636;2023-02-07T05:39:33;18.57;;;9.40;;
70850;SDS011;58475;49.662;9.636;2023-02-07T05:41:59;16.20;;;9.30;;
70850;SDS011;58475;49.662;9.636;2023-02-07T05:44:24;18.53;;;9.60;;
70850;SDS011;58475;49.662;9.636;2023-02-07T05:46:50;15.73;;;8.40;;
70850;SDS011;58475;49.662;9.636;2023-02-07T05:49:15;13.13;;;8.27;;
70850;SDS011;58475;49.662;9.636;2023-02-07T05:51:41;17.43;;;9.13;;
70850;SDS011;58475;49.662;9.636;2023-02-07T05:54:06;16.40;;;8.27;;
70850;SDS011;58475;49.662;9.636;2023-02-07T05:56:31;15.60;;;8.60;;
70850;SDS011;58475;49.662;9.636;2023-02-07T05:58:57;16.50;;;8.60;;
70850;SDS011;58475;49.662;9.636;2023-02-07T06:01:22;16.07;;;8.37;;
70850;SDS011;58475;49.662;9.636;2023-02-07T06:03:48;14.83;;;7.73;;
70850;SDS011;58475;49.662;9.636;2023-02-07T06:06:13;14.63;;;7.87;;
70850;SDS011;58475;49.662;9.636;2023-02-07T06:08:38;16.10;;;8.63;;
70850;SDS011;58475;49.662;9.636;2023-02-07T06:11:04;15.50;;;8.03;;
70850;SDS011;58475;49.662;9.636;2023-02-07T06:13:29;20.30;;;8.87;;
70850;SDS011;58475;49.662;9.636;2023-02-07T06:15:55;20.60;;;9.43;;
70850;SDS011;58475;49.662;9.636;2023-02-07T06:18:20;17.87;;;8.83;;
70850;SDS011;58475;49.662;9.636;2023-02-07T06:20:45;17.63;;;8.90;;
70850;SDS011;58475;49.662;9.636;2023-02-07T06:23:13;18.27;;;9.00;;
70850;SDS011;58475;49.662;9.636;2023-02-07T06:25:39;16.97;;;8.73;;
70850;SDS011;58475;49.662;9.636;2023-02-07T06:28:05;17.57;;;8.87;;
70850;SDS011;58475;49.662;9.636;2023-02-07T06:30:30;21.90;;;8.77;;
70850;SDS011;58475;49.662;9.636;2023-02-07T06:32:56;16.90;;;9.30;;
70850;SDS011;58475;49.662;9.636;2023-02-07T06:35:21;22.37;;;8.63;;
70850;SDS011;58475;49.662;9.636;2023-02-07T06:37:46;20.57;;;8.90;;
70850;SDS011;58475;49.662;9.636;2023-02-07T06:40:12;16.53;;;8.07;;
70850;SDS011;58475;49.662;9.636;2023-02-07T06:42:37;12.77;;;8.50;;
70850;SDS011;58475;49.662;9.636;2023-02-07T06:45:03;16.60;;;8.23;;
70850;SDS011;58475;49.662;9.636;2023-02-07T06:47:28;13.43;;;8.03;;
70850;SDS011;58475;49.662;9.636;2023-02-07T06:49:54;15.43;;;8.50;;
70850;SDS011;58475;49.662;9.636;2023-02-07T06:52:19;17.07;;;8.83;;
70850;SDS011;58475;49.662;9.636;2023-02-07T06:54:45;20.10;;;8.87;;
70850;SDS011;58475;49.662;9.636;2023-02-07T06:57:10;15.67;;;8.47;;
70850;SDS011;58475;49.662;9.636;2023-02-07T06:59:36;14.47;;;8.50;;
70850;SDS011;58475;49.662;9.636;2023-02-07T07:02:01;17.73;;;9.53;;
70850;SDS011;58475;49.662;9.636;2023-02-07T07:04:27;17.33;;;8.17;;
70850;SDS011;58475;49.662;9.636;2023-02-07T07:06:53;14.63;;;8.83;;
70850;SDS011;58475;49.662;9.636;2023-02-07T07:09:19;19.17;;;9.13;;
70850;SDS011;58475;49.662;9.636;2023-02-07T07:11:44;22.00;;;8.60;;
70850;SDS011;58475;49.662;9.636;2023-02-07T07:14:10;21.13;;;8.37;;
70850;SDS011;58475;49.662;9.636;2023-02-07T07:16:36;18.57;;;9.43;;
70850;SDS011;58475;49.662;9.636;2023-02-07T07:19:02;15.53;;;8.10;;
70850;SDS011;58475;49.662;9.636;2023-02-07T07:21:28;18.10;;;8.93;;
70850;SDS011;58475;49.662;9.636;2023-02-07T07:23:53;18.13;;;9.57;;
70850;SDS011;58475;49.662;9.636;2023-02-07T07:26:19;14.07;;;8.70;;
70850;SDS011;58475;49.662;9.636;2023-02-07T07:28:44;16.03;;;9.30;;
70850;SDS011;58475;49.662;9.636;2023-02-07T07:31:10;15.30;;;8.87;;
70850;SDS011;58475;49.662;9.636;2023-02-07T07:33:36;17.47;;;8.53;;
70850;SDS011;58475;49.662;9.636;2023-02-07T07:36:02;16.40;;;9.70;;
70850;SDS011;58475;49.662;9.636;2023-02-07T07:38:28;14.73;;;7.87;;
70850;SDS011;58475;49.662;9.636;2023-02-07T07:40:54;17.00;;;8.80;;
70850;SDS011;58475;49.662;9.636;2023-02-07T07:43:20;16.13;;;8.73;;
70850;SDS011;58475;49.662;9.636;2023-02-07T07:45:50;18.30;;;8.57;;
70850;SDS011;58475;49.662;9.636;2023-02-07T07:48:18;20.50;;;9.40;;
70850;SDS011;58475;49.662;9.636;2023-02-07T07:50:43;17.93;;;9.00;;
70850;SDS011;58475;49.662;9.636;2023-02-07T07:53:09;16.43;;;8.63;;
70850;SDS011;58475;49.662;9.636;2023-02-07T07:55:34;15.83;;;8.37;;
70850;SDS011;58475;49.662;9.636;2023-02-07T07:57:59;18.03;;;9.27;;
70850;SDS011;58475;49.662;9.636;2023-02-07T08:00:25;16.40;;;9.33;;
70850;SDS011;58475;49.662;9.636;2023-02-07T08:02:50;15.70;;;8.40;;
70850;SDS011;58475;49.662;9.636;2023-02-07T08:05:16;16.13;;;8.40;;
70850;SDS011;58475;49.662;9.636;2023-02-07T08:07:41;15.67;;;9.10;;
70850;SDS011;58475;49.662;9.636;2023-02-07T08:10:06;15.00;;;8.83;;
70850;SDS011;58475;49.662;9.636;2023-02-07T08:12:32;13.90;;;8.57;;
70850;SDS011;58475;49.662;9.636;2023-02-07T08:14:58;15.37;;;9.13;;
70850;SDS011;58475;49.662;9.636;2023-02-07T08:17:23;16.97;;;9.07;;
70850;SDS011;58475;49.662;9.636;2023-02-07T08:19:49;18.03;;;8.83;;
70850;SDS011;58475;49.662;9.636;2023-02-07T08:22:14;14.67;;;8.50;;
70850;SDS011;58475;49.662;9.636;2023-02-07T08:24:40;19.87;;;9.73;;
70850;SDS011;58475;49.662;9.636;2023-02-07T08:27:06;17.80;;;9.68;;
70850;SDS011;58475;49.662;9.636;2023-02-07T08:29:31;14.57;;;8.65;;
70850;SDS011;58475;49.662;9.636;2023-02-07T08:31:57;16.53;;;9.50;;
70850;SDS011;58475;49.662;9.636;2023-02-07T08:34:22;22.13;;;9.60;;
70850;SDS011;58475;49.662;9.636;2023-02-07T08:36:50;19.40;;;9.43;;
70850;SDS011;58475;49.662;9.636;2023-02-07T08:39:16;18.70;;;9.53;;
70850;SDS011;58475;49.662;9.636;2023-02-07T08:41:41;17.73;;;9.07;;
70850;SDS011;58475;49.662;9.636;2023-02-07T08:44:07;16.55;;;9.50;;
70850;SDS011;58475;49.662;9.636;2023-02-07T08:46:32;16.35;;;9.02;;
70850;SDS011;58475;49.662;9.636;2023-02-07T08:48:57;20.92;;;9.90;;
70850;SDS011;58475;49.662;9.636;2023-02-07T08:51:23;18.63;;;9.40;;
70850;SDS011;58475;49.662;9.636;2023-02-07T08:53:49;14.63;;;8.75;;
70850;SDS011;58475;49.662;9.636;2023-02-07T08:56:14;15.48;;;9.05;;
70850;SDS011;58475;49.662;9.636;2023-02-07T08:58:39;18.77;;;9.52;;
70850;SDS011;58475;49.662;9.636;2023-02-07T09:01:05;25.27;;;9.32;;
70850;SDS011;58475;49.662;9.636;2023-02-07T09:03:35;20.50;;;9.43;;
70850;SDS011;58475;49.662;9.636;2023-02-07T09:06:03;19.35;;;9.98;;
70850;SDS011;58475;49.662;9.636;2023-02-07T09:08:29;22.02;;;10.73;;
70850;SDS011;58475;49.662;9.636;2023-02-07T09:10:54;22.05;;;10.65;;
70850;SDS011;58475;49.662;9.636;2023-02-07T09:13:20;16.13;;;8.90;;
70850;SDS011;58475;49.662;9.636;2023-02-07T09:15:51;17.65;;;9.23;;
70850;SDS011;58475;49.662;9.636;2023-02-07T09:18:18;16.60;;;9.27;;
70850;SDS011;58475;49.662;9.636;2023-02-07T09:20:43;18.85;;;10.30;;
70850;SDS011;58475;49.662;9.636;2023-02-07T09:23:09;15.80;;;9.38;;
70850;SDS011;58475;49.662;9.636;2023-02-07T09:25:46;18.70;;;9.45;;
70850;SDS011;58475;49.662;9.636;2023-02-07T09:28:14;17.50;;;9.37;;
70850;SDS011;58475;49.662;9.636;2023-02-07T09:30:40;15.75;;;9.75;;
70850;SDS011;58475;49.662;9.636;2023-02-07T09:33:07;16.88;;;9.43;;
70850;SDS011;58475;49.662;9.636;2023-02-07T09:35:36;16.27;;;8.63;;
70850;SDS011;58475;49.662;9.636;2023-02-07T09:38:03;15.77;;;9.35;;
70850;SDS011;58475;49.662;9.636;2023-02-07T09:40:30;18.80;;;9.77;;
70850;SDS011;58475;49.662;9.636;2023-02-07T09:43:01;15.80;;;8.88;;
70850;SDS011;58475;49.662;9.636;2023-02-07T09:45:33;19.08;;;9.65;;
70850;SDS011;58475;49.662;9.636;2023-02-07T09:48:05;17.75;;;9.20;;
70850;SDS011;58475;49.662;9.636;2023-02-07T09:50:40;17.23;;;9.80;;
70850;SDS011;58475;49.662;9.636;2023-02-07T09:53:13;15.55;;;9.13;;
70850;SDS011;58475;49.662;9.636;2023-02-07T09:55:43;15.48;;;8.88;;
70850;SDS011;58475;49.662;9.636;2023-02-07T09:58:32;15.65;;;9.25;;
70850;SDS011;58475;49.662;9.636;2023-02-07T10:01:05;18.15;;;9.25;;
70850;SDS011;58475;49.662;9.636;2023-02-07T10:06:22;14.75;;;8.30;;
70850;SDS011;58475;49.662;9.636;2023-02-07T10:08:52;17.63;;;9.82;;
70850;SDS011;58475;49.662;9.636;2023-02-07T10:25:28;16.27;;;9.30;;
70850;SDS011;58475;49.662;9.636;2023-02-07T10:30:37;18.83;;;9.88;;
70850;SDS011;58475;49.662;9.636;2023-02-07T10:33:23;15.68;;;8.70;;
70850;SDS011;58475;49.662;9.636;2023-02-07T10:35:51;16.67;;;9.23;;
70850;SDS011;58475;49.662;9.636;2023-02-07T10:38:28;17.95;;;9.52;;
70850;SDS011;58475;49.662;9.636;2023-02-07T10:41:00;18.45;;;9.85;;
70850;SDS011;58475;49.662;9.636;2023-02-07T10:43:29;18.83;;;9.88;;
70850;SDS011;58475;49.662;9.636;2023-02-07T10:46:03;17.17;;;9.73;;
70850;SDS011;58475;49.662;9.636;2023-02-07T10:50:56;17.67;;;9.55;;
70850;SDS011;58475;49.662;9.636;2023-02-07T10:53:43;17.13;;;9.40;;
70850;SDS011;58475;49.662;9.636;2023-02-07T10:56:21;16.20;;;9.20;;
70850;SDS011;58475;49.662;9.636;2023-02-07T10:58:48;15.68;;;8.73;;
70850;SDS011;58475;49.662;9.636;2023-02-07T11:01:18;17.20;;;9.93;;
70850;SDS011;58475;49.662;9.636;2023-02-07T11:03:48;17.63;;;9.20;;
70850;SDS011;58475;49.662;9.636;2023-02-07T11:06:15;17.02;;;9.23;;
70850;SDS011;58475;49.662;9.636;2023-02-07T11:08:48;16.00;;;9.57;;
70850;SDS011;58475;49.662;9.636;2023-02-07T11:11:29;18.08;;;9.32;;
70850;SDS011;58475;49.662;9.636;2023-02-07T11:14:01;16.27;;;9.18;;
70850;SDS011;58475;49.662;9.636;2023-02-07T11:16:28;18.88;;;9.88;;
70850;SDS011;58475;49.662;9.636;2023-02-07T11:19:03;19.90;;;9.60;;
70850;SDS011;58475;49.662;9.636;2023-02-07T11:21:38;15.55;;;9.23;;
70850;SDS011;58475;49.662;9.636;2023-02-07T11:27:00;16.15;;;9.68;;
70850;SDS011;58475;49.662;9.636;2023-02-07T11:29:26;17.42;;;9.40;;
70850;SDS011;58475;49.662;9.636;2023-02-07T11:31:54;16.50;;;9.23;;
70850;SDS011;58475;49.662;9.636;2023-02-07T11:40:15;15.30;;;8.85;;
70850;SDS011;58475;49.662;9.636;2023-02-07T11:42:41;15.80;;;8.88;;
70850;SDS011;58475;49.662;9.636;2023-02-07T11:45:12;16.42;;;9.48;;
70850;SDS011;58475;49.662;9.636;2023-02-07T11:47:39;15.88;;;9.18;;
70850;SDS011;58475;49.662;9.636;2023-02-07T11:50:07;17.63;;;9.70;;
70850;SDS011;58475;49.662;9.636;2023-02-07T11:52:39;16.08;;;8.98;;
70850;SDS011;58475;49.662;9.636;2023-02-07T11:55:21;15.75;;;9.23;;
70850;SDS011;58475;49.662;9.636;2023-02-07T11:57:53;16.58;;;9.32;;
70850;SDS011;58475;49.662;9.636;2023-02-07T12:00:22;16.92;;;9.50;;
70850;SDS011;58475;49.662;9.636;2023-02-07T12:02:57;16.27;;;9.25;;
70850;SDS011;58475;49.662;9.636;2023-02-07T12:05:24;16.90;;;9.38;;
70850;SDS011;58475;49.662;9.636;2023-02-07T12:08:04;17.50;;;9.20;;
70850;SDS011;58475;49.662;9.636;2023-02-07T12:10:37;13.93;;;7.78;;
70850;SDS011;58475;49.662;9.636;2023-02-07T12:13:07;16.00;;;8.40;;
70850;SDS011;58475;49.662;9.636;2023-02-07T12:15:40;20.02;;;8.90;;
70850;SDS011;58475;49.662;9.636;2023-02-07T12:20:36;15.73;;;7.93;;
70850;SDS011;58475;49.662;9.636;2023-02-07T12:23:53;14.70;;;8.40;;
70850;SDS011;58475;49.662;9.636;2023-02-07T12:26:04;14.90;;;8.32;;
70850;SDS011;58475;49.662;9.636;2023-02-07T12:31:30;14.45;;;7.78;;
70850;SDS011;58475;49.662;9.636;2023-02-07T12:34:13;14.88;;;7.95;;
70850;SDS011;58475;49.662;9.636;2023-02-07T12:36:47;13.17;;;7.47;;
70850;SDS011;58475;49.662;9.636;2023-02-07T12:39:32;11.85;;;6.75;;
70850;SDS011;58475;49.662;9.636;2023-02-07T12:44:47;12.00;;;6.82;;
70850;SDS011;58475;49.662;9.636;2023-02-07T12:55:15;12.00;;;7.05;;
70850;SDS011;58475;49.662;9.636;2023-02-07T13:00:48;13.43;;;6.60;;
70850;SDS011;58475;49.662;9.636;2023-02-07T13:08:51;14.13;;;6.75;;
70850;SDS011;58475;49.662;9.636;2023-02-07T13:17:01;14.68;;;7.35;;
70850;SDS011;58475;49.662;9.636;2023-02-07T13:19:42;13.40;;;6.60;;
70850;SDS011;58475;49.662;9.636;2023-02-07T13:26:07;12.90;;;6.47;;
70850;SDS011;58475;49.662;9.636;2023-02-07T13:28:40;13.77;;;7.70;;
70850;SDS011;58475;49.662;9.636;2023-02-07T13:31:17;14.30;;;7.07;;
70850;SDS011;58475;49.662;9.636;2023-02-07T13:33:45;12.57;;;7.03;;
70850;SDS011;58475;49.662;9.636;2023-02-07T13:39:08;12.75;;;7.00;;
70850;SDS011;58475;49.662;9.636;2023-02-07T13:44:40;14.00;;;7.32;;
70850;SDS011;58475;49.662;9.636;2023-02-07T13:47:32;13.73;;;7.13;;
70850;SDS011;58475;49.662;9.636;2023-02-07T13:50:01;15.45;;;7.60;;
70850;SDS011;58475;49.662;9.636;2023-02-07T13:52:58;14.85;;;7.95;;
70850;SDS011;58475;49.662;9.636;2023-02-07T13:55:35;13.45;;;6.72;;
70850;SDS011;58475;49.662;9.636;2023-02-07T13:58:03;13.15;;;7.40;;
70850;SDS011;58475;49.662;9.636;2023-02-07T14:03:23;13.13;;;7.18;;
70850;SDS011;58475;49.662;9.636;2023-02-07T14:09:00;14.43;;;7.28;;
70850;SDS011;58475;49.662;9.636;2023-02-07T14:11:48;13.55;;;7.47;;
70850;SDS011;58475;49.662;9.636;2023-02-07T14:14:27;17.65;;;8.30;;
70850;SDS011;58475;49.662;9.636;2023-02-07T14:16:56;13.85;;;7.97;;
70850;SDS011;58475;49.662;9.636;2023-02-07T14:27:30;14.38;;;7.38;;
70850;SDS011;58475;49.662;9.636;2023-02-07T14:34:59;16.52;;;8.80;;
70850;SDS011;58475;49.662;9.636;2023-02-07T14:45:37;18.02;;;8.48;;
70850;SDS011;58475;49.662;9.636;2023-02-07T14:51:01;15.27;;;8.25;;
70850;SDS011;58475;49.662;9.636;2023-02-07T14:53:29;15.63;;;8.00;;
70850;SDS011;58475;49.662;9.636;2023-02-07T14:55:59;16.10;;;8.43;;
70850;SDS011;58475;49.662;9.636;2023-02-07T14:58:35;15.90;;;8.73;;
70850;SDS011;58475;49.662;9.636;2023-02-07T15:01:09;14.63;;;7.90;;
70850;SDS011;58475;49.662;9.636;2023-02-07T15:03:36;14.48;;;7.63;;
70850;SDS011;58475;49.662;9.636;2023-02-07T15:06:02;15.85;;;7.95;;
70850;SDS011;58475;49.662;9.636;2023-02-07T15:08:47;18.30;;;8.25;;
70850;SDS011;58475;49.662;9.636;2023-02-07T15:11:19;18.20;;;7.40;;
70850;SDS011;58475;49.662;9.636;2023-02-07T15:13:46;19.23;;;8.15;;
70850;SDS011;58475;49.662;9.636;2023-02-07T15:16:19;14.27;;;7.38;;
70850;SDS011;58475;49.662;9.636;2023-02-07T15:18:51;15.20;;;7.35;;
70850;SDS011;58475;49.662;9.636;2023-02-07T15:21:26;14.55;;;7.38;;
70850;SDS011;58475;49.662;9.636;2023-02-07T15:23:59;15.45;;;7.82;;
70850;SDS011;58475;49.662;9.636;2023-02-07T15:26:38;13.65;;;7.00;;
70850;SDS011;58475;49.662;9.636;2023-02-07T15:29:05;16.85;;;7.40;;
70850;SDS011;58475;49.662;9.636;2023-02-07T15:31:43;13.90;;;7.43;;
70850;SDS011;58475;49.662;9.636;2023-02-07T15:34:19;13.55;;;7.28;;
70850;SDS011;58475;49.662;9.636;2023-02-07T15:36:48;18.55;;;7.30;;
70850;SDS011;58475;49.662;9.636;2023-02-07T15:39:19;18.33;;;7.22;;
70850;SDS011;58475;49.662;9.636;2023-02-07T15:41:48;17.90;;;6.90;;
70850;SDS011;58475;49.662;9.636;2023-02-07T15:44:28;16.15;;;7.05;;
70850;SDS011;58475;49.662;9.636;2023-02-07T15:47:01;17.30;;;6.25;;
70850;SDS011;58475;49.662;9.636;2023-02-07T15:49:34;14.48;;;6.90;;
70850;SDS011;58475;49.662;9.636;2023-02-07T15:54:42;14.95;;;7.03;;
70850;SDS011;58475;49.662;9.636;2023-02-07T15:57:17;15.43;;;7.35;;
70850;SDS011;58475;49.662;9.636;2023-02-07T16:00:05;15.68;;;7.05;;
70850;SDS011;58475;49.662;9.636;2023-02-07T16:05:07;13.73;;;6.32;;
70850;SDS011;58475;49.662;9.636;2023-02-07T16:07:34;14.57;;;6.70;;
70850;SDS011;58475;49.662;9.636;2023-02-07T16:10:17;14.45;;;6.82;;
70850;SDS011;58475;49.662;9.636;2023-02-07T16:12:46;14.40;;;7.10;;
70850;SDS011;58475;49.662;9.636;2023-02-07T16:18:15;13.30;;;7.30;;
70850;SDS011;58475;49.662;9.636;2023-02-07T16:21:06;17.05;;;6.65;;
70850;SDS011;58475;49.662;9.636;2023-02-07T16:23:39;19.27;;;7.43;;
70850;SDS011;58475;49.662;9.636;2023-02-07T16:26:06;13.88;;;7.43;;
70850;SDS011;58475;49.662;9.636;2023-02-07T16:28:31;19.35;;;7.65;;
70850;SDS011;58475;49.662;9.636;2023-02-07T16:30:57;19.92;;;7.60;;
70850;SDS011;58475;49.662;9.636;2023-02-07T16:33:23;15.43;;;7.22;;
70850;SDS011;58475;49.662;9.636;2023-02-07T16:35:49;19.67;;;8.38;;
70850;SDS011;58475;49.662;9.636;2023-02-07T16:38:15;21.08;;;7.80;;
70850;SDS011;58475;49.662;9.636;2023-02-07T16:40:40;19.77;;;7.75;;
70850;SDS011;58475;49.662;9.636;2023-02-07T16:43:06;17.77;;;7.78;;
70850;SDS011;58475;49.662;9.636;2023-02-07T16:45:32;17.63;;;8.25;;
70850;SDS011;58475;49.662;9.636;2023-02-07T16:47:58;16.23;;;7.65;;
70850;SDS011;58475;49.662;9.636;2023-02-07T16:50:27;15.40;;;8.20;;
70850;SDS011;58475;49.662;9.636;2023-02-07T16:52:54;16.25;;;8.50;;
70850;SDS011;58475;49.662;9.636;2023-02-07T16:55:21;21.20;;;8.35;;
70850;SDS011;58475;49.662;9.636;2023-02-07T16:57:50;16.30;;;8.05;;
70850;SDS011;58475;49.662;9.636;2023-02-07T17:00:21;16.70;;;8.25;;